Flight Track Log - Related Links

Times and Time Zones

All times are in EDT time to prevent confusion due to time zone crossing. See the LYM903 flight status page for this flight to view local times or setup timezone preferences in your user account.

Time Position Orientation Groundspeed Altitude Reporting Facility
EDT Latitude Longitude Course Direction KTS MPH feet Rate Location/Type
Tue 08:30:35 AM 39.5500 -104.8667 281° West 126 145 6,200  Level Denver TRACON
Tue 08:35:29 AM 39.5833 -105.0833 257° West 129 148 10,600 890 Climbing Denver TRACON
Tue 08:36:12 AM 39.5772 -105.1183 280° West 128 147 11,200 750 Climbing Denver Center
Tue 08:37:13 AM 39.5836 -105.1650 290° West 124 143 11,900 683 Climbing Denver Center
Tue 08:38:15 AM 39.5961 -105.2086 289° West 130 150 12,600 683 Climbing Denver Center
Tue 08:39:16 AM 39.6078 -105.2536 285° West 131 151 13,300 634 Climbing Denver Center
Tue 08:40:18 AM 39.6178 -105.3006 286° West 134 154 13,900 634 Climbing Denver Center
Tue 08:41:19 AM 39.6300 -105.3564 287° West 145 167 14,600 639 Climbing Denver Center
Tue 08:42:20 AM 39.6417 -105.4072 287° West 147 169 15,200 537 Climbing Denver Center
Tue 08:43:22 AM 39.6536 -105.4578 287° West 147 169 15,700 537 Climbing Denver Center
Tue 08:44:23 AM 39.6664 -105.5131 286° West 148 170 16,300 537 Climbing Denver Center
Tue 08:45:25 AM 39.6778 -105.5650 262° West 149 171 16,800 341 Climbing Denver Center
Tue 08:46:26 AM 39.6722 -105.6192 257° West 152 175 17,000 98 Climbing Denver Center
Tue 08:47:27 AM 39.6611 -105.6822 257° West 178 205 17,000 -49 Level Denver Center
Tue 08:48:29 AM 39.6486 -105.7506 258° West 180 207 16,900  Descending Denver Center
Tue 08:49:30 AM 39.6381 -105.8150 256° West 182 209 17,000 -49 Climbing Denver Center
Tue 08:50:32 AM 39.6261 -105.8792 257° West 177 204 16,800 -98 Descending Denver Center
Tue 08:51:33 AM 39.6150 -105.9406 257° West 175 201 16,800 -49 Level Denver Center
Tue 08:52:34 AM 39.6042 -106.0006 257° West 171 197 16,700 -49 Descending Denver Center
Tue 08:53:36 AM 39.5933 -106.0633 258° West 174 200 16,700 49 Level Denver Center
Tue 08:54:37 AM 39.5825 -106.1292 256° West 182 209 16,800 146 Climbing Denver Center
Tue 08:55:39 AM 39.5703 -106.1942 256° West 186 214 17,000 49 Climbing Denver Center
Tue 08:56:40 AM 39.5578 -106.2597 257° West 187 215 16,900  Descending Denver Center
Tue 08:57:41 AM 39.5464 -106.3239 257° West 184 212 17,000 49 Climbing Denver Center
Tue 08:58:43 AM 39.5347 -106.3881 258° West 183 211 17,000  Level Denver Center
Tue 08:59:44 AM 39.5239 -106.4525 256° West 183 211 17,000  Level Denver Center
Tue 09:00:45 AM 39.5100 -106.5264 256° West 182 209 17,000  Level Denver Center
Tue 09:01:47 AM 39.4981 -106.5872 257° West 181 208 17,000 -49 Level Denver Center
Tue 09:02:48 AM 39.4853 -106.6578 256° West 181 208 16,900 -98 Descending Denver Center
Tue 09:03:49 AM 39.4739 -106.7186 256° West 182 209 16,800  Descending Denver Center
Tue 09:04:51 AM 39.4614 -106.7814 255° West 186 214 16,900 -49 Climbing Denver Center
Tue 09:05:52 AM 39.4458 -106.8547 254° West 188 216 16,700 -49 Descending Denver Center
Tue 09:06:53 AM 39.4328 -106.9147 256° West 184 212 16,800 49 Climbing Denver Center
Tue 09:07:54 AM 39.4194 -106.9847 258° West 180 207 16,800  Level Denver Center
Tue 09:08:56 AM 39.4094 -107.0453 255° West 180 207 16,800  Level Denver Center
Tue 09:09:57 AM 39.3967 -107.1078 255° West 180 207 16,800 -49 Level Denver Center
Tue 09:10:58 AM 39.3839 -107.1703 256° West 179 206 16,700  Descending Denver Center
Tue 09:12:00 AM 39.3708 -107.2356 256° West 181 208 16,800 49 Climbing Denver Center
Tue 09:13:01 AM 39.3569 -107.3067 256° West 183 211 16,800 98 Level Denver Center
Tue 09:14:02 AM 39.3456 -107.3672 256° West 182 209 17,000 98 Climbing Denver Center
Tue 09:15:04 AM 39.3347 -107.4231 255° West 174 200 17,000  Level Denver Center
Tue 09:16:05 AM 39.3214 -107.4892 257° West 171 197 17,000 -49 Level Denver Center
Tue 09:17:06 AM 39.3111 -107.5464 256° West 171 197 16,900 -439 Descending Denver Center
Tue 09:18:08 AM 39.2969 -107.6214 255° West 189 217 16,100 -878 Descending Denver Center
Tue 09:19:09 AM 39.2822 -107.6931 256° West 209 241 15,100 -541 Descending Denver Center
Tue 09:20:10 AM 39.2686 -107.7619 256° West 210 242 15,000 -49 Descending Denver Center
Tue 09:21:12 AM 39.2556 -107.8319 254° West 188 216 15,000  Level Denver Center
Tue 09:22:13 AM 39.2417 -107.8944 257° West 173 199 15,000 -49 Level Denver Center
Tue 09:23:14 AM 39.2303 -107.9558 256° West 175 201 14,900 -683 Descending Denver Center
Tue 09:24:16 AM 39.2167 -108.0264 256° West 212 244 13,600 -1,268 Descending Denver Center
Tue 09:25:17 AM 39.2011 -108.1061 256° West 213 245 12,300 -1,171 Descending Denver Center
Tue 09:26:19 AM 39.1872 -108.1792 262° West 210 242 11,200 -976 Descending Denver Center
Tue 09:27:20 AM 39.1794 -108.2503 256° West 201 231 10,300 -885 Descending Denver Center
Tue 09:28:21 AM 39.1656 -108.3211 256° West 192 221 9,400 -683 Descending Denver Center
Tue 09:29:23 AM 39.1533 -108.3844 258° West 192 221 8,900 -439 Descending Denver Center
Tue 09:30:24 AM 39.1433 -108.4469 301° West 184 212 8,500 -488 Descending Denver Center
Tue 09:31:26 AM 39.1694 -108.5039 273° West 175 201 7,900 -976 Descending Denver Center
Tue 09:32:27 AM 39.1714 -108.5525 186° South 156 180 6,500 -1,279 Descending Denver Center
Tue 09:33:28 AM 39.1417 -108.5567 123° Southeast 136 157 5,300 -829 Descending Denver Center
Tue 09:34:30 AM 39.1225 -108.5189 224° Southwest 129 148 4,800 -244 Descending Denver Center
Tue 09:35:31 AM 39.1214 -108.5203 247° West 113 130 4,800  Level Denver Center
Tue 09:42:52 AM 39.1151 -108.5393 247° West  Level FlightAware Approximate

Login

Don't have an account? Register now (free) for customized features, flight alerts, and more!